createdAt,value
2022-11-16T00:02:06.815Z,10.97
2022-11-16T00:04:33.433Z,10.93
2022-11-16T00:07:02.668Z,10.96
2022-11-16T00:09:31.913Z,10.97
2022-11-16T00:12:05.084Z,10.97
2022-11-16T00:14:36.351Z,10.99
2022-11-16T00:17:03.999Z,11.02
2022-11-16T00:19:30.973Z,11.02
2022-11-16T00:21:57.734Z,11.01
2022-11-16T00:24:24.406Z,11.02
2022-11-16T00:26:53.042Z,11.03
2022-11-16T00:29:22.383Z,11.02
2022-11-16T00:31:48.967Z,11.04
2022-11-16T00:34:15.557Z,10.99
2022-11-16T00:36:42.208Z,11.02
2022-11-16T00:39:14.377Z,11.01
2022-11-16T00:41:41.847Z,11.02
2022-11-16T00:44:09.003Z,11.04
2022-11-16T00:46:35.433Z,11.04
2022-11-16T00:49:01.982Z,11.02
2022-11-16T00:51:28.504Z,11.04
2022-11-16T00:53:54.925Z,11.04
2022-11-16T00:56:21.411Z,11.07
2022-11-16T00:58:47.881Z,11.08
2022-11-16T01:01:14.744Z,11.04
2022-11-16T01:03:41.263Z,11.02
2022-11-16T01:06:10.651Z,11.00
2022-11-16T01:08:38.785Z,11.00
2022-11-16T01:11:25.344Z,11.01
2022-11-16T01:13:52.660Z,11.04
2022-11-16T01:16:21.138Z,11.01
2022-11-16T01:18:49.088Z,11.03
2022-11-16T01:21:15.934Z,11.03
2022-11-16T01:23:42.540Z,10.97
2022-11-16T01:26:09.267Z,10.97
2022-11-16T01:28:36.177Z,10.98
2022-11-16T01:31:02.793Z,10.98
2022-11-16T01:33:30.179Z,11.01
2022-11-16T01:35:56.570Z,11.00
2022-11-16T01:38:27.126Z,10.95
2022-11-16T01:40:55.920Z,10.98
2022-11-16T01:43:25.190Z,11.00
2022-11-16T01:45:52.260Z,11.01
2022-11-16T01:48:27.098Z,11.00
2022-11-16T01:50:56.689Z,11.03
2022-11-16T01:53:24.203Z,10.98
2022-11-16T01:55:50.868Z,10.96
2022-11-16T01:58:20.917Z,11.00
2022-11-16T02:00:49.099Z,11.03
2022-11-16T02:03:20.345Z,10.99
2022-11-16T02:06:04.884Z,11.05
2022-11-16T02:09:07.127Z,11.01
2022-11-16T02:11:50.004Z,11.00
2022-11-16T02:14:25.968Z,11.03
2022-11-16T02:17:21.267Z,11.02
2022-11-16T02:20:12.512Z,11.03
2022-11-16T02:23:00.832Z,11.03
2022-11-16T02:26:07.240Z,11.02
2022-11-16T02:28:45.721Z,11.04
2022-11-16T02:31:24.637Z,11.03
2022-11-16T02:33:54.122Z,11.02
2022-11-16T02:36:24.279Z,10.98
2022-11-16T02:38:58.079Z,11.02
2022-11-16T02:41:28.553Z,10.97
2022-11-16T02:44:02.818Z,11.02
2022-11-16T02:46:37.820Z,11.00
2022-11-16T02:49:09.696Z,11.03
2022-11-16T02:51:37.564Z,11.03
2022-11-16T02:54:08.532Z,11.02
2022-11-16T02:57:04.274Z,11.08
2022-11-16T02:59:39.391Z,10.99
2022-11-16T03:02:26.856Z,11.02
2022-11-16T03:05:07.908Z,10.97
2022-11-16T03:07:46.262Z,10.99
2022-11-16T03:10:34.483Z,11.01
2022-11-16T03:13:03.743Z,11.00
2022-11-16T03:15:30.585Z,11.02
2022-11-16T03:17:59.427Z,11.01
2022-11-16T03:20:29.730Z,11.02
2022-11-16T03:23:03.326Z,11.04
2022-11-16T03:25:34.246Z,11.05
2022-11-16T03:28:10.066Z,11.07
2022-11-16T03:31:02.972Z,11.08
2022-11-16T03:33:34.007Z,11.09
2022-11-16T03:36:09.805Z,11.06
2022-11-16T03:38:40.026Z,11.08
2022-11-16T03:41:08.757Z,11.03
2022-11-16T03:43:37.493Z,10.93
2022-11-16T03:46:04.778Z,10.89
2022-11-16T03:48:36.044Z,10.89
2022-11-16T03:51:04.279Z,10.85
2022-11-16T03:53:30.766Z,10.88
2022-11-16T03:55:57.290Z,10.85
2022-11-16T03:58:23.724Z,10.80
2022-11-16T04:00:50.188Z,10.76
2022-11-16T04:03:16.721Z,10.80
2022-11-16T04:06:01.743Z,10.79
2022-11-16T04:08:46.561Z,10.77
2022-11-16T04:11:34.223Z,10.75
2022-11-16T04:14:19.641Z,10.75
2022-11-16T04:17:04.459Z,10.76
2022-11-16T04:19:56.790Z,10.68
2022-11-16T04:22:49.727Z,10.70
2022-11-16T04:25:23.049Z,10.76
2022-11-16T04:28:08.175Z,10.67
2022-11-16T04:30:54.777Z,10.64
2022-11-16T04:33:39.877Z,10.64
2022-11-16T04:36:25.698Z,10.60
2022-11-16T04:38:52.141Z,10.61
2022-11-16T04:41:37.192Z,10.58
2022-11-16T04:44:03.676Z,10.56
2022-11-16T04:46:48.397Z,10.53
2022-11-16T04:49:14.823Z,10.50
2022-11-16T04:51:41.242Z,10.54
2022-11-16T04:54:07.637Z,10.53
2022-11-16T04:56:34.064Z,10.49
2022-11-16T04:59:00.491Z,10.48
2022-11-16T05:01:45.807Z,10.49
2022-11-16T05:04:12.445Z,10.50
2022-11-16T05:06:38.954Z,10.45
2022-11-16T05:09:05.479Z,10.42
2022-11-16T05:11:31.893Z,10.42
2022-11-16T05:13:58.442Z,10.39
2022-11-16T05:16:24.981Z,10.38
2022-11-16T05:19:15.644Z,10.33
2022-11-16T05:21:42.061Z,10.43
2022-11-16T05:24:27.358Z,10.35
2022-11-16T05:26:53.766Z,10.38
2022-11-16T05:29:21.670Z,10.40
2022-11-16T05:31:48.197Z,10.37
2022-11-16T05:34:14.652Z,10.35
2022-11-16T05:36:41.181Z,10.40
2022-11-16T05:39:07.613Z,10.30
2022-11-16T05:41:35.356Z,10.38
2022-11-16T05:44:01.762Z,10.41
2022-11-16T05:46:28.228Z,10.46
2022-11-16T05:48:54.835Z,10.53
2022-11-16T05:51:21.504Z,10.46
2022-11-16T05:53:49.453Z,10.45
2022-11-16T05:56:16.533Z,10.40
2022-11-16T05:58:44.048Z,10.39
2022-11-16T06:01:10.559Z,10.40
2022-11-16T06:03:37.193Z,10.36
2022-11-16T06:06:04.978Z,10.35
2022-11-16T06:08:31.848Z,10.30
2022-11-16T06:11:07.098Z,10.27
2022-11-16T06:13:33.795Z,10.26
2022-11-16T06:16:01.556Z,10.20
2022-11-16T06:18:27.990Z,10.15
2022-11-16T06:20:54.727Z,10.17
2022-11-16T06:23:21.686Z,10.11
2022-11-16T06:25:52.953Z,10.05
2022-11-16T06:28:19.455Z,10.03
2022-11-16T06:30:45.966Z,9.98
2022-11-16T06:33:12.867Z,10.02
2022-11-16T06:35:39.271Z,9.93
2022-11-16T06:38:05.992Z,9.87
2022-11-16T06:40:33.149Z,9.82
2022-11-16T06:42:59.701Z,9.76
2022-11-16T06:45:27.131Z,9.74
2022-11-16T06:47:53.566Z,9.77
2022-11-16T06:50:20.226Z,9.74
2022-11-16T06:52:48.037Z,9.65
2022-11-16T06:55:15.480Z,9.68
2022-11-16T06:57:42.359Z,9.68
2022-11-16T07:00:12.220Z,9.57
2022-11-16T07:02:39.462Z,9.57
2022-11-16T07:05:07.039Z,9.50
2022-11-16T07:07:33.671Z,9.52
2022-11-16T07:10:00.126Z,9.45
2022-11-16T07:12:27.336Z,9.47
2022-11-16T07:14:53.739Z,9.48
2022-11-16T07:17:21.415Z,9.40
2022-11-16T07:19:47.867Z,9.35
2022-11-16T07:22:14.287Z,9.39
2022-11-16T07:24:40.697Z,9.48
2022-11-16T07:27:08.311Z,9.31
2022-11-16T07:29:34.817Z,9.23
2022-11-16T07:32:01.453Z,9.24
2022-11-16T07:34:27.880Z,9.24
2022-11-16T07:36:54.300Z,9.19
2022-11-16T07:39:21.887Z,9.21
2022-11-16T07:41:50.366Z,9.15
2022-11-16T07:44:16.786Z,9.28
2022-11-16T07:46:47.857Z,9.24
2022-11-16T07:49:16.472Z,9.26
2022-11-16T07:51:43.226Z,9.31
2022-11-16T07:54:16.357Z,9.18
2022-11-16T07:56:44.078Z,9.23
2022-11-16T07:59:10.617Z,9.30
2022-11-16T08:01:37.099Z,9.23
2022-11-16T08:04:03.685Z,9.34
2022-11-16T08:06:31.579Z,9.25
2022-11-16T08:08:59.275Z,9.39
2022-11-16T08:11:26.220Z,9.50
2022-11-16T08:13:52.753Z,9.48
2022-11-16T08:16:22.054Z,9.62
2022-11-16T08:18:48.824Z,9.61
2022-11-16T08:21:16.977Z,9.69
2022-11-16T08:23:44.980Z,9.91
2022-11-16T08:26:17.846Z,9.86
2022-11-16T08:28:46.691Z,9.93
2022-11-16T08:31:25.990Z,9.86
2022-11-16T08:33:52.565Z,10.03
2022-11-16T08:36:19.371Z,10.16
2022-11-16T08:38:50.387Z,10.49
2022-11-16T08:41:17.544Z,10.58
2022-11-16T08:43:46.470Z,10.82
2022-11-16T08:46:13.486Z,10.67
2022-11-16T08:48:40.132Z,10.76
2022-11-16T08:51:18.463Z,10.93
2022-11-16T08:53:48.605Z,11.08
2022-11-16T08:56:17.911Z,11.30
2022-11-16T08:58:46.885Z,11.52
2022-11-16T09:01:19.321Z,13.00
2022-11-16T09:03:46.174Z,14.52
2022-11-16T09:06:12.970Z,15.55
2022-11-16T09:08:41.149Z,18.99
2022-11-16T09:11:09.370Z,18.52
2022-11-16T09:13:36.380Z,19.97
2022-11-16T09:16:03.964Z,20.37
2022-11-16T09:18:31.367Z,22.12
2022-11-16T09:20:58.464Z,22.51
2022-11-16T09:23:25.937Z,23.66
2022-11-16T09:25:54.382Z,23.27
2022-11-16T09:28:22.276Z,24.07
2022-11-16T09:30:50.974Z,24.09
2022-11-16T09:33:18.146Z,24.00
2022-11-16T09:35:44.908Z,24.73
2022-11-16T09:38:14.853Z,23.84
2022-11-16T09:40:47.442Z,24.10
2022-11-16T09:43:51.003Z,24.45
2022-11-16T09:46:32.524Z,23.89
2022-11-16T09:49:02.637Z,21.85
2022-11-16T09:51:33.787Z,23.91
2022-11-16T09:54:13.277Z,23.46
2022-11-16T09:56:42.398Z,22.08
2022-11-16T09:59:12.232Z,22.79
2022-11-16T10:01:50.322Z,21.74
2022-11-16T10:04:36.844Z,19.92
2022-11-16T10:07:08.098Z,17.91
2022-11-16T10:09:36.070Z,17.74
2022-11-16T10:12:08.659Z,16.79
2022-11-16T10:14:51.767Z,17.31
2022-11-16T10:17:38.508Z,16.95
2022-11-16T10:20:10.702Z,16.63
2022-11-16T10:23:22.099Z,17.36
2022-11-16T10:25:58.863Z,16.67
2022-11-16T10:28:53.054Z,16.59
2022-11-16T10:31:27.377Z,16.33
2022-11-16T10:33:56.870Z,16.38
2022-11-16T10:36:27.382Z,15.90
2022-11-16T10:38:59.357Z,15.71
2022-11-16T10:41:37.501Z,16.54
2022-11-16T10:44:31.854Z,15.85
2022-11-16T10:47:04.391Z,15.91
2022-11-16T10:49:44.743Z,15.27
2022-11-16T10:52:11.261Z,14.33
2022-11-16T10:54:42.844Z,15.50
2022-11-16T10:57:14.057Z,15.59
2022-11-16T10:59:49.947Z,15.94
2022-11-16T11:02:34.839Z,16.46
2022-11-16T11:05:01.820Z,16.39
2022-11-16T11:07:32.138Z,16.29
2022-11-16T11:09:58.754Z,16.35
2022-11-16T11:12:38.633Z,16.40
2022-11-16T11:15:10.997Z,15.12
2022-11-16T11:17:40.145Z,14.67
2022-11-16T11:20:17.233Z,15.51
2022-11-16T11:23:00.545Z,16.20
2022-11-16T11:25:29.751Z,15.87
2022-11-16T11:28:06.498Z,16.05
2022-11-16T11:30:34.543Z,16.41
2022-11-16T11:33:01.403Z,16.67
2022-11-16T11:35:32.183Z,17.35
2022-11-16T11:38:07.763Z,17.24
2022-11-16T11:40:34.928Z,17.61
2022-11-16T11:43:06.026Z,17.05
2022-11-16T11:45:56.720Z,17.44
2022-11-16T11:48:43.077Z,15.93
2022-11-16T11:51:31.780Z,16.52
2022-11-16T11:54:21.070Z,14.01
2022-11-16T11:56:47.627Z,13.14
2022-11-16T11:59:20.168Z,12.84
2022-11-16T12:02:20.250Z,13.39
2022-11-16T12:05:05.726Z,13.31
2022-11-16T12:07:50.506Z,13.83
2022-11-16T12:10:49.322Z,13.05
2022-11-16T12:13:44.872Z,12.66
2022-11-16T12:16:36.761Z,12.38
2022-11-16T12:19:21.611Z,12.21
2022-11-16T12:22:12.236Z,12.23
2022-11-16T12:24:49.098Z,12.10
2022-11-16T12:27:33.025Z,11.96
2022-11-16T12:30:18.360Z,12.28
2022-11-16T12:32:47.664Z,12.59
2022-11-16T12:35:53.948Z,13.67
2022-11-16T12:38:38.545Z,15.33
2022-11-16T12:41:16.717Z,14.58
2022-11-16T12:44:00.027Z,15.53
2022-11-16T12:46:47.864Z,14.99
2022-11-16T12:49:27.588Z,15.55
2022-11-16T12:52:29.246Z,15.70
2022-11-16T12:55:25.401Z,15.42
2022-11-16T12:57:59.450Z,16.05
2022-11-16T13:00:28.704Z,15.34
2022-11-16T13:03:00.619Z,15.68
2022-11-16T13:05:43.478Z,14.54
2022-11-16T13:08:26.483Z,14.93
2022-11-16T13:11:09.288Z,15.06
2022-11-16T13:13:37.508Z,14.99
2022-11-16T13:16:06.482Z,15.26
2022-11-16T13:18:35.769Z,15.28
2022-11-16T13:21:38.072Z,15.49
2022-11-16T13:24:28.347Z,14.98
2022-11-16T13:27:21.139Z,14.74
2022-11-16T13:29:53.713Z,15.61
2022-11-16T13:32:32.346Z,15.14
2022-11-16T13:35:00.205Z,14.45
2022-11-16T13:37:38.961Z,13.68
2022-11-16T13:40:05.517Z,13.33
2022-11-16T13:42:44.968Z,13.68
2022-11-16T13:45:20.723Z,13.90
2022-11-16T13:47:55.746Z,14.65
2022-11-16T13:50:37.463Z,13.43
2022-11-16T13:56:07.227Z,12.43
2022-11-16T13:58:37.456Z,12.54
2022-11-16T14:01:10.645Z,12.42
2022-11-16T14:03:39.008Z,12.16
2022-11-16T14:06:26.735Z,12.16
2022-11-16T14:08:58.389Z,12.29
2022-11-16T14:11:40.776Z,12.28
2022-11-16T14:14:12.881Z,12.66
2022-11-16T14:16:50.082Z,12.88
2022-11-16T14:19:44.790Z,12.65
2022-11-16T14:22:26.440Z,12.62
2022-11-16T14:25:02.011Z,12.32
2022-11-16T14:27:38.653Z,12.27
2022-11-16T14:30:05.178Z,12.39
2022-11-16T14:32:41.259Z,12.04
2022-11-16T14:35:39.777Z,12.05
2022-11-16T14:38:24.535Z,11.98
2022-11-16T14:40:59.092Z,12.00
2022-11-16T14:43:43.094Z,11.84
2022-11-16T14:46:20.653Z,11.90
2022-11-16T14:48:47.597Z,11.78
2022-11-16T14:51:21.106Z,11.79
2022-11-16T14:53:59.666Z,11.83
2022-11-16T14:56:26.511Z,11.68
2022-11-16T14:59:01.500Z,11.53
2022-11-16T15:01:31.395Z,11.55
2022-11-16T15:04:07.841Z,11.52
2022-11-16T15:06:43.771Z,11.39
2022-11-16T15:09:19.765Z,11.40
2022-11-16T15:12:08.440Z,11.35
2022-11-16T15:14:41.683Z,11.38
2022-11-16T15:17:09.753Z,11.33
2022-11-16T15:19:36.372Z,11.34
2022-11-16T15:22:04.593Z,11.14
2022-11-16T15:24:33.695Z,11.26
2022-11-16T15:27:11.169Z,11.25
2022-11-16T15:29:38.415Z,11.27
2022-11-16T15:32:06.997Z,11.16
2022-11-16T15:34:33.519Z,11.11
2022-11-16T15:36:59.990Z,11.00
2022-11-16T15:39:32.274Z,11.07
2022-11-16T15:42:03.801Z,11.06
2022-11-16T15:44:31.916Z,11.07
2022-11-16T15:46:59.422Z,10.99
2022-11-16T15:49:32.333Z,10.91
2022-11-16T15:51:59.556Z,10.91
2022-11-16T15:54:27.612Z,10.95
2022-11-16T15:56:58.288Z,10.94
2022-11-16T15:59:34.296Z,10.85
2022-11-16T16:02:00.860Z,10.66
2022-11-16T16:04:28.938Z,10.62
2022-11-16T16:06:58.009Z,10.57
2022-11-16T16:09:24.710Z,10.49
2022-11-16T16:11:52.526Z,10.54
2022-11-16T16:14:28.620Z,10.53
2022-11-16T16:16:58.188Z,10.72
2022-11-16T16:19:36.400Z,10.62
2022-11-16T16:22:04.852Z,10.66
2022-11-16T16:24:45.890Z,10.60
2022-11-16T16:27:15.518Z,10.62
2022-11-16T16:29:42.314Z,10.53
2022-11-16T16:32:14.455Z,10.60
2022-11-16T16:34:42.422Z,10.75
2022-11-16T16:37:12.915Z,10.62
2022-11-16T16:39:39.914Z,10.65
2022-11-16T16:42:16.687Z,10.64
2022-11-16T16:44:44.813Z,10.70
2022-11-16T16:47:11.922Z,10.62
2022-11-16T16:49:38.350Z,10.58
2022-11-16T16:52:06.350Z,10.52
2022-11-16T16:54:33.424Z,10.43
2022-11-16T16:57:01.453Z,10.49
2022-11-16T16:59:30.166Z,10.51
2022-11-16T17:01:57.935Z,10.40
2022-11-16T17:04:25.272Z,10.48
2022-11-16T17:06:53.325Z,10.26
2022-11-16T17:09:20.443Z,10.33
2022-11-16T17:11:47.636Z,10.27
2022-11-16T17:14:14.167Z,10.29
2022-11-16T17:16:40.677Z,10.34
2022-11-16T17:19:07.097Z,10.24
2022-11-16T17:21:33.546Z,10.27
2022-11-16T17:24:00.025Z,10.26
2022-11-16T17:26:29.355Z,10.15
2022-11-16T17:28:57.031Z,10.17
2022-11-16T17:31:24.896Z,10.23
2022-11-16T17:33:51.546Z,10.08
2022-11-16T17:36:18.380Z,10.09
2022-11-16T17:38:45.288Z,10.05
2022-11-16T17:41:14.237Z,10.01
2022-11-16T17:43:42.023Z,9.88
2022-11-16T17:46:20.029Z,10.02
2022-11-16T17:48:47.511Z,10.14
2022-11-16T17:51:20.106Z,10.05
2022-11-16T17:53:46.851Z,10.15
2022-11-16T17:56:15.338Z,10.03
2022-11-16T17:58:41.910Z,10.10
2022-11-16T18:01:08.859Z,10.17
2022-11-16T18:03:36.661Z,10.11
2022-11-16T18:06:04.901Z,10.16
2022-11-16T18:08:33.169Z,10.13
2022-11-16T18:11:10.478Z,10.05
2022-11-16T18:13:37.982Z,10.14
2022-11-16T18:16:16.648Z,10.00
2022-11-16T18:18:44.601Z,9.97
2022-11-16T18:21:17.216Z,10.00
2022-11-16T18:23:46.544Z,9.84
2022-11-16T18:26:15.332Z,9.92
2022-11-16T18:28:44.431Z,9.82
2022-11-16T18:31:13.579Z,9.77
2022-11-16T18:33:40.191Z,9.74
2022-11-16T18:36:07.714Z,9.84
2022-11-16T18:38:34.896Z,9.84
2022-11-16T18:41:07.558Z,9.78
2022-11-16T18:43:34.861Z,9.79
2022-11-16T18:46:01.608Z,9.79
2022-11-16T18:48:28.350Z,9.70
2022-11-16T18:51:02.467Z,9.76
2022-11-16T18:53:30.547Z,9.81
2022-11-16T18:55:58.297Z,9.73
2022-11-16T18:58:55.192Z,9.75
2022-11-16T19:01:15.543Z,9.86
2022-11-16T19:03:43.211Z,9.85
2022-11-16T19:06:10.702Z,9.90
2022-11-16T19:08:38.578Z,9.93
2022-11-16T19:11:10.224Z,9.87
2022-11-16T19:13:37.130Z,9.93
2022-11-16T19:16:04.053Z,9.86
2022-11-16T19:18:30.597Z,9.78
2022-11-16T19:21:08.632Z,9.90
2022-11-16T19:23:39.776Z,9.84
2022-11-16T19:26:06.832Z,9.84
2022-11-16T19:28:37.873Z,9.77
2022-11-16T19:31:31.897Z,9.92
2022-11-16T19:34:00.601Z,9.96
2022-11-16T19:36:28.426Z,9.93
2022-11-16T19:38:55.598Z,9.95
2022-11-16T19:41:22.781Z,9.80
2022-11-16T19:43:57.042Z,9.95
2022-11-16T19:46:24.752Z,9.96
2022-11-16T19:48:51.561Z,9.94
2022-11-16T19:51:21.615Z,9.88
2022-11-16T19:53:48.633Z,10.00
2022-11-16T19:56:18.136Z,9.96
2022-11-16T19:58:45.146Z,9.98
2022-11-16T20:01:17.828Z,10.04
2022-11-16T20:03:45.460Z,10.01
2022-11-16T20:06:16.898Z,10.10
2022-11-16T20:08:47.885Z,10.06
2022-11-16T20:11:20.538Z,10.02
2022-11-16T20:13:48.370Z,9.97
2022-11-16T20:16:16.245Z,10.02
2022-11-16T20:18:44.180Z,9.92
2022-11-16T20:21:23.158Z,9.91
2022-11-16T20:23:51.649Z,10.03
2022-11-16T20:26:19.865Z,9.99
2022-11-16T20:28:46.425Z,9.96
2022-11-16T20:31:14.862Z,9.94
2022-11-16T20:33:41.888Z,9.99
2022-11-16T20:36:11.167Z,10.03
2022-11-16T20:38:39.171Z,10.06
2022-11-16T20:41:19.539Z,10.07
2022-11-16T20:43:47.398Z,10.06
2022-11-16T20:46:16.794Z,10.03
2022-11-16T20:48:44.251Z,9.98
2022-11-16T20:51:19.400Z,10.00
2022-11-16T20:53:47.651Z,9.87
2022-11-16T20:56:15.499Z,9.97
2022-11-16T20:58:42.241Z,9.89
2022-11-16T21:01:15.062Z,9.98
2022-11-16T21:03:42.582Z,9.92
2022-11-16T21:06:09.003Z,9.91
2022-11-16T21:08:36.540Z,9.96
2022-11-16T21:11:09.988Z,9.95
2022-11-16T21:13:54.912Z,10.09
2022-11-16T21:16:21.335Z,10.07
2022-11-16T21:18:47.738Z,9.94
2022-11-16T21:21:14.766Z,10.04
2022-11-16T21:23:45.022Z,10.05
2022-11-16T21:26:13.749Z,10.00
2022-11-16T21:28:41.547Z,10.09
2022-11-16T21:31:10.673Z,9.99
2022-11-16T21:33:37.696Z,10.09
2022-11-16T21:36:06.372Z,10.10
2022-11-16T21:38:34.151Z,10.12
2022-11-16T21:41:01.018Z,10.11
2022-11-16T21:43:28.165Z,10.05
2022-11-16T21:46:01.994Z,10.04
2022-11-16T21:48:28.576Z,10.05
2022-11-16T21:51:01.517Z,10.06
2022-11-16T21:53:28.256Z,10.10
2022-11-16T21:55:54.634Z,10.16
2022-11-16T21:58:21.552Z,10.19
2022-11-16T22:00:47.993Z,10.12
2022-11-16T22:03:15.353Z,10.18
2022-11-16T22:06:00.422Z,10.13
2022-11-16T22:08:26.830Z,10.08
2022-11-16T22:10:53.434Z,10.11
2022-11-16T22:13:20.600Z,10.13
2022-11-16T22:15:46.996Z,10.05
2022-11-16T22:18:13.535Z,10.12
2022-11-16T22:20:40.272Z,10.10
2022-11-16T22:23:06.696Z,10.00
2022-11-16T22:25:33.202Z,10.04
2022-11-16T22:28:19.714Z,10.02
2022-11-16T22:30:51.366Z,10.08
2022-11-16T22:33:18.472Z,10.14
2022-11-16T22:35:47.055Z,10.16
2022-11-16T22:38:13.436Z,9.96
2022-11-16T22:40:39.861Z,9.96
2022-11-16T22:43:06.334Z,9.98
2022-11-16T22:45:32.791Z,9.96
2022-11-16T22:47:59.172Z,9.91
2022-11-16T22:50:25.768Z,9.98
2022-11-16T22:52:52.179Z,9.92
2022-11-16T22:55:18.612Z,9.84
2022-11-16T22:57:45.112Z,9.82
2022-11-16T23:00:13.629Z,9.85
2022-11-16T23:02:40.221Z,9.91
2022-11-16T23:05:07.002Z,9.86
2022-11-16T23:07:33.478Z,9.82
2022-11-16T23:09:59.944Z,9.79
2022-11-16T23:12:44.830Z,9.89
2022-11-16T23:15:31.230Z,9.89
2022-11-16T23:17:58.187Z,9.92
2022-11-16T23:20:42.989Z,9.85
2022-11-16T23:23:37.908Z,9.82
2022-11-16T23:26:29.185Z,9.77
2022-11-16T23:28:55.630Z,9.85
2022-11-16T23:31:22.228Z,9.87
2022-11-16T23:33:48.757Z,9.85
2022-11-16T23:36:15.350Z,9.82
2022-11-16T23:38:41.812Z,9.81
2022-11-16T23:41:27.130Z,9.77
2022-11-16T23:43:59.313Z,9.68
2022-11-16T23:46:31.639Z,9.72
2022-11-16T23:48:58.729Z,9.75
2022-11-16T23:51:25.335Z,9.66
2022-11-16T23:53:52.981Z,9.74
2022-11-16T23:56:23.372Z,9.58
2022-11-16T23:58:50.143Z,9.62
